AUA334 EGLL-LOWW
Flight info
| Callsign | AUA334 |
|---|---|
| Flight time | 1h 48m |
| Altitude | 41000 |
| Route | DET L6 DVR UL9 KONAN DCT KOK DCT MATUG DCT GUBAX DCT BARSU DCT EKSOS DCT LULAR DCT RUDAP DCT BUDEX BUDEX2W |
| Aircraft | A359/H-SDE2E3GHIJ3J4J5LM1ORWXY/LB1D1 |
Departure
| Time | 2026-04-24 02:25 |
|---|---|
| Airport | London Heathrow Airport (EGLL) |
Arrival
| Time | 2026-04-24 04:14 |
|---|---|
| Airport | Vienna International Airport (LOWW) |
| Time | Latitude | Longitude | Altitude | Speed | Heading |
|---|---|---|---|---|---|
| 2026-04-24 01:54 | 51.46938 | -0.44410 | 92 ft | 0 kts | 90° |
| 2026-04-24 02:14 | 51.46938 | -0.44411 | 92 ft | 1 kts | 90° |
| 2026-04-24 02:14 | 51.46938 | -0.44445 | 96 ft | 3 kts | 90° |
| 2026-04-24 02:15 | 51.46938 | -0.44470 | 94 ft | 3 kts | 90° |
| 2026-04-24 02:15 | 51.46937 | -0.44502 | 95 ft | 3 kts | 91° |
| 2026-04-24 02:15 | 51.46941 | -0.44535 | 93 ft | 3 kts | 126° |
| 2026-04-24 02:15 | 51.46963 | -0.44555 | 93 ft | 2 kts | 180° |
| 2026-04-24 02:16 | 51.46979 | -0.44556 | 93 ft | 3 kts | 180° |
| 2026-04-24 02:16 | 51.46996 | -0.44556 | 91 ft | 0 kts | 180° |
| 2026-04-24 02:18 | 51.46990 | -0.44556 | 93 ft | 2 kts | 180° |
| 2026-04-24 02:18 | 51.46959 | -0.44555 | 94 ft | 7 kts | 180° |
| 2026-04-24 02:19 | 51.46897 | -0.44555 | 92 ft | 11 kts | 180° |
| 2026-04-24 02:19 | 51.46813 | -0.44554 | 95 ft | 11 kts | 180° |
| 2026-04-24 02:19 | 51.46753 | -0.44621 | 96 ft | 12 kts | 256° |
| 2026-04-24 02:19 | 51.46752 | -0.44771 | 94 ft | 15 kts | 270° |
| 2026-04-24 02:20 | 51.46752 | -0.44957 | 92 ft | 18 kts | 270° |
| 2026-04-24 02:20 | 51.46752 | -0.45177 | 95 ft | 21 kts | 270° |
| 2026-04-24 02:20 | 51.46752 | -0.45426 | 92 ft | 24 kts | 269° |
| 2026-04-24 02:20 | 51.46750 | -0.45705 | 92 ft | 26 kts | 269° |
| 2026-04-24 02:21 | 51.46749 | -0.46006 | 94 ft | 28 kts | 270° |
| 2026-04-24 02:21 | 51.46749 | -0.46328 | 96 ft | 30 kts | 270° |
| 2026-04-24 02:21 | 51.46748 | -0.46583 | 96 ft | 20 kts | 270° |
| 2026-04-24 02:21 | 51.46748 | -0.46815 | 96 ft | 22 kts | 270° |
| 2026-04-24 02:22 | 51.46747 | -0.47080 | 96 ft | 25 kts | 270° |
| 2026-04-24 02:22 | 51.46747 | -0.47365 | 96 ft | 27 kts | 269° |
| 2026-04-24 02:22 | 51.46746 | -0.47680 | 96 ft | 29 kts | 270° |
| 2026-04-24 02:22 | 51.46744 | -0.48012 | 94 ft | 27 kts | 266° |
| 2026-04-24 02:23 | 51.46738 | -0.48198 | 92 ft | 16 kts | 267° |
| 2026-04-24 02:23 | 51.46737 | -0.48387 | 92 ft | 10 kts | 269° |
| 2026-04-24 02:23 | 51.46702 | -0.48473 | 95 ft | 10 kts | 207° |
| 2026-04-24 02:23 | 51.46622 | -0.48470 | 96 ft | 13 kts | 175° |
| 2026-04-24 02:24 | 51.46522 | -0.48465 | 96 ft | 16 kts | 178° |
| 2026-04-24 02:24 | 51.46482 | -0.48417 | 97 ft | 7 kts | 106° |
| 2026-04-24 02:24 | 51.46480 | -0.48324 | 94 ft | 12 kts | 91° |
| 2026-04-24 02:24 | 51.46481 | -0.47821 | 93 ft | 83 kts | 90° |
| 2026-04-24 02:25 | 51.46488 | -0.46525 | 98 ft | 147 kts | 89° |
| 2026-04-24 02:25 | 51.46475 | -0.44698 | 571 ft | 165 kts | 90° |
| 2026-04-24 02:25 | 51.46445 | -0.42881 | 1503 ft | 165 kts | 91° |
| 2026-04-24 02:25 | 51.46331 | -0.40935 | 1919 ft | 192 kts | 99° |
| 2026-04-24 02:26 | 51.45809 | -0.38780 | 2237 ft | 226 kts | 120° |
| 2026-04-24 02:26 | 51.44764 | -0.36663 | 2669 ft | 253 kts | 131° |
| 2026-04-24 02:26 | 51.43631 | -0.34528 | 3714 ft | 248 kts | 124° |
| 2026-04-24 02:26 | 51.42838 | -0.32092 | 4710 ft | 247 kts | 108° |
| 2026-04-24 02:27 | 51.42474 | -0.29330 | 5404 ft | 260 kts | 97° |
| 2026-04-24 02:27 | 51.42260 | -0.26467 | 6299 ft | 261 kts | 97° |
| 2026-04-24 02:27 | 51.41985 | -0.23602 | 7364 ft | 260 kts | 99° |
| 2026-04-24 02:27 | 51.41660 | -0.20738 | 8327 ft | 263 kts | 100° |
| 2026-04-24 02:28 | 51.41300 | -0.17849 | 9278 ft | 266 kts | 101° |
| 2026-04-24 02:28 | 51.40918 | -0.14928 | 10243 ft | 270 kts | 102° |
| 2026-04-24 02:28 | 51.40518 | -0.11934 | 10933 ft | 283 kts | 102° |
| 2026-04-24 02:28 | 51.40079 | -0.08719 | 11313 ft | 306 kts | 102° |
| 2026-04-24 02:29 | 51.39604 | -0.05267 | 11704 ft | 328 kts | 102° |
| 2026-04-24 02:29 | 51.39098 | -0.01615 | 12227 ft | 342 kts | 103° |
| 2026-04-24 02:29 | 51.38573 | 0.02159 | 12951 ft | 350 kts | 102° |
| 2026-04-24 02:29 | 51.38038 | 0.06001 | 13741 ft | 356 kts | 103° |
| 2026-04-24 02:30 | 51.37500 | 0.09855 | 14499 ft | 361 kts | 103° |
| 2026-04-24 02:30 | 51.36946 | 0.13810 | 15235 ft | 366 kts | 103° |
| 2026-04-24 02:30 | 51.36384 | 0.17809 | 15970 ft | 371 kts | 103° |
| 2026-04-24 02:30 | 51.35815 | 0.21853 | 16693 ft | 375 kts | 103° |
| 2026-04-24 02:31 | 51.35234 | 0.25954 | 17429 ft | 379 kts | 104° |
| 2026-04-24 02:31 | 51.34647 | 0.30092 | 18169 ft | 384 kts | 104° |
| 2026-04-24 02:31 | 51.34050 | 0.34283 | 18875 ft | 389 kts | 104° |
| 2026-04-24 02:31 | 51.33447 | 0.38518 | 19572 ft | 392 kts | 104° |
| 2026-04-24 02:32 | 51.32836 | 0.42787 | 20350 ft | 394 kts | 105° |
| 2026-04-24 02:32 | 51.32222 | 0.47077 | 21164 ft | 397 kts | 105° |
| 2026-04-24 02:32 | 51.31603 | 0.51394 | 21855 ft | 401 kts | 105° |
| 2026-04-24 02:32 | 51.30973 | 0.55760 | 22535 ft | 405 kts | 105° |
| 2026-04-24 02:33 | 51.30344 | 0.60109 | 23230 ft | 408 kts | 105° |
| 2026-04-24 02:33 | 51.29656 | 0.64517 | 23917 ft | 411 kts | 108° |
| 2026-04-24 02:33 | 51.28863 | 0.68925 | 24504 ft | 414 kts | 109° |
| 2026-04-24 02:33 | 51.28021 | 0.73341 | 25090 ft | 417 kts | 110° |
| 2026-04-24 02:34 | 51.27163 | 0.77785 | 25675 ft | 420 kts | 110° |
| 2026-04-24 02:34 | 51.26306 | 0.82262 | 26246 ft | 423 kts | 110° |
| 2026-04-24 02:34 | 51.25451 | 0.86780 | 26830 ft | 427 kts | 110° |
| 2026-04-24 02:34 | 51.24600 | 0.91330 | 27382 ft | 430 kts | 110° |
| 2026-04-24 02:35 | 51.23745 | 0.95923 | 27905 ft | 433 kts | 110° |
| 2026-04-24 02:35 | 51.22882 | 1.00570 | 28332 ft | 440 kts | 110° |
| 2026-04-24 02:35 | 51.22008 | 1.05271 | 28827 ft | 444 kts | 110° |
| 2026-04-24 02:35 | 51.21125 | 1.10014 | 29370 ft | 446 kts | 111° |
| 2026-04-24 02:36 | 51.20237 | 1.14774 | 29894 ft | 449 kts | 111° |
| 2026-04-24 02:36 | 51.19339 | 1.19566 | 30390 ft | 453 kts | 111° |
| 2026-04-24 02:36 | 51.18434 | 1.24385 | 30800 ft | 456 kts | 111° |
| 2026-04-24 02:36 | 51.17520 | 1.29236 | 31203 ft | 458 kts | 111° |
| 2026-04-24 02:37 | 51.16666 | 1.34156 | 31593 ft | 463 kts | 107° |
| 2026-04-24 02:37 | 51.16161 | 1.39195 | 31963 ft | 470 kts | 101° |
| 2026-04-24 02:37 | 51.15828 | 1.44400 | 32289 ft | 473 kts | 100° |
| 2026-04-24 02:37 | 51.15551 | 1.49659 | 32569 ft | 478 kts | 99° |
| 2026-04-24 02:38 | 51.15301 | 1.54952 | 32903 ft | 480 kts | 99° |
| 2026-04-24 02:38 | 51.15058 | 1.60267 | 33271 ft | 482 kts | 99° |
| 2026-04-24 02:38 | 51.14814 | 1.65588 | 33780 ft | 480 kts | 99° |
| 2026-04-24 02:38 | 51.14565 | 1.70869 | 34286 ft | 477 kts | 99° |
| 2026-04-24 02:39 | 51.14309 | 1.76141 | 34700 ft | 476 kts | 99° |
| 2026-04-24 02:39 | 51.14047 | 1.81402 | 35029 ft | 476 kts | 99° |
| 2026-04-24 02:39 | 51.13778 | 1.86662 | 35341 ft | 477 kts | 99° |
| 2026-04-24 02:39 | 51.13506 | 1.91922 | 35636 ft | 477 kts | 99° |
| 2026-04-24 02:40 | 51.13232 | 1.97181 | 35945 ft | 477 kts | 99° |
| 2026-04-24 02:40 | 51.12956 | 2.02441 | 36272 ft | 477 kts | 99° |
| 2026-04-24 02:40 | 51.12680 | 2.07709 | 36584 ft | 476 kts | 99° |
| 2026-04-24 02:40 | 51.12400 | 2.12962 | 36891 ft | 476 kts | 99° |
| 2026-04-24 02:41 | 51.12115 | 2.18218 | 37195 ft | 476 kts | 99° |
| 2026-04-24 02:41 | 51.11832 | 2.23406 | 37492 ft | 476 kts | 99° |
| 2026-04-24 02:41 | 51.11543 | 2.28657 | 37781 ft | 476 kts | 99° |
| 2026-04-24 02:41 | 51.11253 | 2.33910 | 38076 ft | 475 kts | 99° |
| 2026-04-24 02:42 | 51.10961 | 2.39146 | 38347 ft | 475 kts | 99° |
| 2026-04-24 02:42 | 51.10669 | 2.44367 | 38722 ft | 472 kts | 99° |
| 2026-04-24 02:42 | 51.10375 | 2.49565 | 39018 ft | 471 kts | 99° |
| 2026-04-24 02:42 | 51.10079 | 2.54768 | 39220 ft | 471 kts | 99° |
| 2026-04-24 02:43 | 51.09780 | 2.59967 | 39386 ft | 472 kts | 99° |
| 2026-04-24 02:43 | 51.09348 | 2.65131 | 39530 ft | 470 kts | 104° |
| 2026-04-24 02:43 | 51.08632 | 2.70197 | 39694 ft | 469 kts | 107° |
| 2026-04-24 02:43 | 51.07845 | 2.75246 | 39853 ft | 470 kts | 107° |
| 2026-04-24 02:44 | 51.07024 | 2.80277 | 40013 ft | 470 kts | 108° |
| 2026-04-24 02:44 | 51.06195 | 2.85244 | 40163 ft | 470 kts | 108° |
| 2026-04-24 02:44 | 51.05348 | 2.90272 | 40311 ft | 471 kts | 108° |
| 2026-04-24 02:44 | 51.04500 | 2.95299 | 40461 ft | 472 kts | 108° |
| 2026-04-24 02:45 | 51.03651 | 3.00337 | 40599 ft | 472 kts | 107° |
| 2026-04-24 02:45 | 51.02801 | 3.05384 | 40757 ft | 473 kts | 107° |
| 2026-04-24 02:45 | 51.01951 | 3.10432 | 40876 ft | 473 kts | 107° |
| 2026-04-24 02:45 | 51.01098 | 3.15487 | 41023 ft | 474 kts | 107° |
| 2026-04-24 02:46 | 51.00245 | 3.20536 | 41154 ft | 474 kts | 107° |
| 2026-04-24 02:46 | 50.99388 | 3.25591 | 41276 ft | 475 kts | 107° |
| 2026-04-24 02:46 | 50.97662 | 3.35725 | 41327 ft | 475 kts | 107° |
| 2026-04-24 02:47 | 50.95926 | 3.45852 | 41325 ft | 475 kts | 107° |
| 2026-04-24 02:47 | 50.94186 | 3.55951 | 41325 ft | 475 kts | 107° |
| 2026-04-24 02:48 | 50.92435 | 3.66045 | 41325 ft | 475 kts | 107° |
| 2026-04-24 02:48 | 50.90676 | 3.76135 | 41325 ft | 475 kts | 107° |
| 2026-04-24 02:49 | 50.88910 | 3.86207 | 41327 ft | 474 kts | 107° |
| 2026-04-24 02:49 | 50.87150 | 3.96190 | 41332 ft | 474 kts | 107° |
| 2026-04-24 02:50 | 50.85367 | 4.06240 | 41335 ft | 474 kts | 107° |
| 2026-04-24 02:50 | 50.83577 | 4.16279 | 41339 ft | 474 kts | 107° |
| 2026-04-24 02:51 | 50.81777 | 4.26317 | 41342 ft | 474 kts | 107° |
| 2026-04-24 02:51 | 50.79971 | 4.36333 | 41344 ft | 474 kts | 108° |
| 2026-04-24 02:52 | 50.78169 | 4.46274 | 41344 ft | 473 kts | 107° |
| 2026-04-24 02:52 | 50.76345 | 4.56277 | 41342 ft | 473 kts | 108° |
| 2026-04-24 02:53 | 50.74515 | 4.66258 | 41343 ft | 473 kts | 108° |
| 2026-04-24 02:53 | 50.72675 | 4.76245 | 41322 ft | 473 kts | 108° |
| 2026-04-24 02:54 | 50.70827 | 4.86215 | 41322 ft | 474 kts | 108° |
| 2026-04-24 02:54 | 50.68968 | 4.96196 | 41321 ft | 474 kts | 108° |
| 2026-04-24 02:55 | 50.67113 | 5.06101 | 41316 ft | 474 kts | 108° |
| 2026-04-24 02:55 | 50.65237 | 5.16065 | 41314 ft | 474 kts | 108° |
| 2026-04-24 02:56 | 50.63352 | 5.26024 | 41319 ft | 475 kts | 108° |
| 2026-04-24 02:56 | 50.61455 | 5.35991 | 41311 ft | 475 kts | 108° |
| 2026-04-24 02:57 | 50.59546 | 5.45966 | 41309 ft | 475 kts | 108° |
| 2026-04-24 02:57 | 50.57630 | 5.55932 | 41308 ft | 475 kts | 108° |
| 2026-04-24 02:58 | 50.55702 | 5.65905 | 41308 ft | 476 kts | 108° |
| 2026-04-24 02:58 | 50.53778 | 5.75807 | 41303 ft | 476 kts | 108° |
| 2026-04-24 02:59 | 50.51833 | 5.85761 | 41297 ft | 477 kts | 108° |
| 2026-04-24 02:59 | 50.49876 | 5.95730 | 41295 ft | 477 kts | 108° |
| 2026-04-24 03:00 | 50.47912 | 6.05677 | 41298 ft | 476 kts | 108° |
| 2026-04-24 03:00 | 50.45942 | 6.15608 | 41301 ft | 475 kts | 108° |
| 2026-04-24 03:01 | 50.43980 | 6.25449 | 41295 ft | 475 kts | 108° |
| 2026-04-24 03:01 | 50.42057 | 6.35378 | 41287 ft | 476 kts | 104° |
| 2026-04-24 03:02 | 50.41145 | 6.43879 | 41284 ft | 476 kts | 98° |
| 2026-04-24 03:02 | 50.40319 | 6.54215 | 41281 ft | 477 kts | 97° |
| 2026-04-24 03:03 | 50.39547 | 6.64537 | 41283 ft | 477 kts | 97° |
| 2026-04-24 03:03 | 50.38759 | 6.74842 | 41277 ft | 476 kts | 97° |
| 2026-04-24 03:04 | 50.37948 | 6.85156 | 41281 ft | 476 kts | 98° |
| 2026-04-24 03:04 | 50.37124 | 6.95461 | 41277 ft | 477 kts | 98° |
| 2026-04-24 03:05 | 50.36297 | 7.05694 | 41277 ft | 476 kts | 98° |
| 2026-04-24 03:05 | 50.35455 | 7.15989 | 41280 ft | 476 kts | 98° |
| 2026-04-24 03:06 | 50.34606 | 7.26271 | 41276 ft | 476 kts | 98° |
| 2026-04-24 03:06 | 50.33748 | 7.36548 | 41281 ft | 476 kts | 98° |
| 2026-04-24 03:07 | 50.32885 | 7.46769 | 41284 ft | 476 kts | 97° |
| 2026-04-24 03:07 | 50.32008 | 7.57045 | 41289 ft | 476 kts | 98° |
| 2026-04-24 03:08 | 50.30675 | 7.72462 | 41284 ft | 476 kts | 98° |
| 2026-04-24 03:09 | 50.29775 | 7.82731 | 41285 ft | 476 kts | 98° |
| 2026-04-24 03:09 | 50.28864 | 7.92992 | 41283 ft | 476 kts | 98° |
| 2026-04-24 03:10 | 50.27586 | 8.03088 | 41279 ft | 476 kts | 103° |
| 2026-04-24 03:10 | 50.26069 | 8.13168 | 41273 ft | 476 kts | 103° |
| 2026-04-24 03:11 | 50.24588 | 8.23258 | 41273 ft | 476 kts | 102° |
| 2026-04-24 03:11 | 50.23151 | 8.33366 | 41270 ft | 476 kts | 102° |
| 2026-04-24 03:12 | 50.21726 | 8.43466 | 41269 ft | 476 kts | 102° |
| 2026-04-24 03:12 | 50.20291 | 8.53567 | 41264 ft | 476 kts | 102° |
| 2026-04-24 03:13 | 50.18854 | 8.63597 | 41264 ft | 476 kts | 102° |
| 2026-04-24 03:13 | 50.17397 | 8.73700 | 41262 ft | 476 kts | 102° |
| 2026-04-24 03:14 | 50.15933 | 8.83775 | 41259 ft | 476 kts | 102° |
| 2026-04-24 03:14 | 50.14461 | 8.93840 | 41259 ft | 476 kts | 102° |
| 2026-04-24 03:15 | 50.12978 | 9.03915 | 41260 ft | 476 kts | 102° |
| 2026-04-24 03:15 | 50.11497 | 9.13915 | 41254 ft | 476 kts | 102° |
| 2026-04-24 03:16 | 50.09996 | 9.23983 | 41249 ft | 477 kts | 102° |
| 2026-04-24 03:16 | 50.08485 | 9.34051 | 41252 ft | 478 kts | 102° |
| 2026-04-24 03:17 | 50.06965 | 9.44123 | 41246 ft | 478 kts | 102° |
| 2026-04-24 03:17 | 50.05434 | 9.54197 | 41241 ft | 478 kts | 102° |
| 2026-04-24 03:18 | 50.03894 | 9.64261 | 41245 ft | 478 kts | 102° |
| 2026-04-24 03:18 | 50.02354 | 9.74270 | 41238 ft | 479 kts | 102° |
| 2026-04-24 03:19 | 50.00796 | 9.84336 | 41240 ft | 479 kts | 102° |
| 2026-04-24 03:19 | 49.99228 | 9.94396 | 41236 ft | 479 kts | 102° |
| 2026-04-24 03:20 | 49.97651 | 10.04454 | 41238 ft | 477 kts | 102° |
| 2026-04-24 03:20 | 49.96073 | 10.14463 | 41241 ft | 478 kts | 102° |
| 2026-04-24 03:21 | 49.94480 | 10.24502 | 41238 ft | 478 kts | 102° |
| 2026-04-24 03:21 | 49.92886 | 10.34483 | 41237 ft | 479 kts | 102° |
| 2026-04-24 03:22 | 49.90785 | 10.44302 | 41236 ft | 480 kts | 109° |
| 2026-04-24 03:22 | 49.88335 | 10.53954 | 41237 ft | 481 kts | 110° |
| 2026-04-24 03:23 | 49.85824 | 10.63572 | 41238 ft | 482 kts | 110° |
| 2026-04-24 03:23 | 49.83302 | 10.73202 | 41238 ft | 482 kts | 110° |
| 2026-04-24 03:24 | 49.80796 | 10.82771 | 41238 ft | 482 kts | 110° |
| 2026-04-24 03:24 | 49.78271 | 10.92390 | 41235 ft | 482 kts | 110° |
| 2026-04-24 03:25 | 49.75742 | 11.01991 | 41227 ft | 482 kts | 110° |
| 2026-04-24 03:25 | 49.73197 | 11.11604 | 41220 ft | 482 kts | 110° |
| 2026-04-24 03:26 | 49.70663 | 11.21140 | 41220 ft | 482 kts | 110° |
| 2026-04-24 03:26 | 49.68105 | 11.30725 | 41218 ft | 482 kts | 110° |
| 2026-04-24 03:27 | 49.65536 | 11.40311 | 41209 ft | 483 kts | 110° |
| 2026-04-24 03:27 | 49.63249 | 11.50047 | 41204 ft | 481 kts | 104° |
| 2026-04-24 03:28 | 49.61321 | 11.59921 | 41195 ft | 481 kts | 104° |
| 2026-04-24 03:28 | 49.59365 | 11.69780 | 41196 ft | 480 kts | 104° |
| 2026-04-24 03:29 | 49.57340 | 11.79569 | 41191 ft | 479 kts | 105° |
| 2026-04-24 03:29 | 49.55280 | 11.89335 | 41185 ft | 479 kts | 105° |
| 2026-04-24 03:30 | 49.53218 | 11.99041 | 41191 ft | 480 kts | 105° |
| 2026-04-24 03:30 | 49.51137 | 12.08808 | 41195 ft | 480 kts | 105° |
| 2026-04-24 03:31 | 49.49051 | 12.18558 | 41208 ft | 480 kts | 105° |
| 2026-04-24 03:31 | 49.46966 | 12.28258 | 41211 ft | 480 kts | 105° |
| 2026-04-24 03:32 | 49.44856 | 12.38029 | 41212 ft | 481 kts | 105° |
| 2026-04-24 03:32 | 49.42742 | 12.47771 | 41214 ft | 481 kts | 105° |
| 2026-04-24 03:33 | 49.40621 | 12.57504 | 41206 ft | 481 kts | 105° |
| 2026-04-24 03:33 | 49.38487 | 12.67244 | 41211 ft | 481 kts | 105° |
| 2026-04-24 03:34 | 49.36361 | 12.76908 | 41209 ft | 481 kts | 105° |
| 2026-04-24 03:34 | 49.34073 | 12.86586 | 41205 ft | 482 kts | 107° |
| 2026-04-24 03:35 | 49.31670 | 12.96185 | 41200 ft | 482 kts | 107° |
| 2026-04-24 03:35 | 49.29272 | 13.05793 | 41201 ft | 482 kts | 107° |
| 2026-04-24 03:36 | 49.26892 | 13.15396 | 41199 ft | 482 kts | 107° |
| 2026-04-24 03:36 | 49.24511 | 13.25005 | 41197 ft | 482 kts | 107° |
| 2026-04-24 03:37 | 49.22028 | 13.34560 | 41202 ft | 483 kts | 109° |
| 2026-04-24 03:37 | 49.19459 | 13.43995 | 41203 ft | 483 kts | 109° |
| 2026-04-24 03:38 | 49.16883 | 13.53493 | 41204 ft | 482 kts | 109° |
| 2026-04-24 03:38 | 49.14312 | 13.62963 | 41206 ft | 482 kts | 109° |
| 2026-04-24 03:39 | 49.11738 | 13.72414 | 41203 ft | 481 kts | 109° |
| 2026-04-24 03:39 | 49.09177 | 13.81788 | 41216 ft | 482 kts | 109° |
| 2026-04-24 03:40 | 49.06588 | 13.91223 | 41201 ft | 482 kts | 109° |
| 2026-04-24 03:40 | 49.03990 | 14.00652 | 41173 ft | 483 kts | 109° |
| 2026-04-24 03:40 | 49.02688 | 14.05361 | 40773 ft | 481 kts | 109° |
| 2026-04-24 03:41 | 49.01385 | 14.10071 | 40032 ft | 482 kts | 108° |
| 2026-04-24 03:41 | 49.00077 | 14.14787 | 39294 ft | 484 kts | 108° |
| 2026-04-24 03:41 | 48.98764 | 14.19510 | 38538 ft | 485 kts | 108° |
| 2026-04-24 03:41 | 48.97465 | 14.24177 | 37702 ft | 486 kts | 108° |
| 2026-04-24 03:42 | 48.96126 | 14.28976 | 36837 ft | 488 kts | 108° |
| 2026-04-24 03:42 | 48.94664 | 14.33588 | 36103 ft | 493 kts | 116° |
| 2026-04-24 03:42 | 48.92715 | 14.37898 | 35394 ft | 497 kts | 122° |
| 2026-04-24 03:42 | 48.90613 | 14.42074 | 34599 ft | 498 kts | 123° |
| 2026-04-24 03:43 | 48.88485 | 14.46252 | 33690 ft | 501 kts | 123° |
| 2026-04-24 03:43 | 48.86352 | 14.50446 | 32799 ft | 502 kts | 123° |
| 2026-04-24 03:43 | 48.84213 | 14.54653 | 31914 ft | 503 kts | 123° |
| 2026-04-24 03:43 | 48.82071 | 14.58868 | 31016 ft | 505 kts | 123° |
| 2026-04-24 03:44 | 48.79918 | 14.63103 | 30016 ft | 508 kts | 123° |
| 2026-04-24 03:44 | 48.77757 | 14.67349 | 28944 ft | 510 kts | 123° |
| 2026-04-24 03:44 | 48.75593 | 14.71589 | 28259 ft | 504 kts | 123° |
| 2026-04-24 03:44 | 48.73459 | 14.75765 | 27579 ft | 498 kts | 123° |
| 2026-04-24 03:45 | 48.72083 | 14.78456 | 27157 ft | 495 kts | 123° |
| 2026-04-24 03:45 | 48.69857 | 14.82812 | 26457 ft | 490 kts | 123° |
| 2026-04-24 03:45 | 48.67777 | 14.86862 | 25784 ft | 486 kts | 123° |
| 2026-04-24 03:45 | 48.65739 | 14.90825 | 25122 ft | 482 kts | 123° |
| 2026-04-24 03:46 | 48.63684 | 14.94817 | 24486 ft | 478 kts | 123° |
| 2026-04-24 03:46 | 48.61649 | 14.98766 | 23825 ft | 475 kts | 123° |
| 2026-04-24 03:46 | 48.59706 | 15.02778 | 23083 ft | 466 kts | 117° |
| 2026-04-24 03:46 | 48.58391 | 15.07136 | 22453 ft | 450 kts | 103° |
| 2026-04-24 03:47 | 48.57555 | 15.11642 | 21818 ft | 441 kts | 99° |
| 2026-04-24 03:47 | 48.56800 | 15.16111 | 21193 ft | 437 kts | 99° |
| 2026-04-24 03:47 | 48.56305 | 15.19043 | 20801 ft | 434 kts | 99° |
| 2026-04-24 03:47 | 48.55313 | 15.24859 | 19973 ft | 429 kts | 99° |
| 2026-04-24 03:48 | 48.54566 | 15.29202 | 19348 ft | 426 kts | 99° |
| 2026-04-24 03:48 | 48.53818 | 15.33531 | 18731 ft | 424 kts | 99° |
| 2026-04-24 03:48 | 48.53321 | 15.36389 | 18282 ft | 423 kts | 99° |
| 2026-04-24 03:48 | 48.52576 | 15.40667 | 17605 ft | 420 kts | 100° |
| 2026-04-24 03:49 | 48.51982 | 15.44946 | 16984 ft | 411 kts | 92° |
| 2026-04-24 03:49 | 48.51703 | 15.49219 | 16845 ft | 411 kts | 90° |
| 2026-04-24 03:49 | 48.51467 | 15.53525 | 16699 ft | 413 kts | 90° |
| 2026-04-24 03:49 | 48.51230 | 15.57841 | 16509 ft | 412 kts | 90° |
| 2026-04-24 03:50 | 48.50991 | 15.62108 | 16296 ft | 412 kts | 90° |
| 2026-04-24 03:50 | 48.50745 | 15.66462 | 16097 ft | 411 kts | 90° |
| 2026-04-24 03:50 | 48.50504 | 15.70701 | 15905 ft | 410 kts | 91° |
| 2026-04-24 03:50 | 48.50253 | 15.74981 | 15701 ft | 409 kts | 91° |
| 2026-04-24 03:51 | 48.50000 | 15.79255 | 15503 ft | 409 kts | 91° |
| 2026-04-24 03:51 | 48.49748 | 15.83517 | 15287 ft | 408 kts | 91° |
| 2026-04-24 03:51 | 48.49495 | 15.87783 | 15106 ft | 408 kts | 91° |
| 2026-04-24 03:51 | 48.49241 | 15.92028 | 14908 ft | 407 kts | 91° |
| 2026-04-24 03:52 | 48.48985 | 15.96278 | 14705 ft | 406 kts | 91° |
| 2026-04-24 03:52 | 48.48727 | 16.00532 | 14507 ft | 406 kts | 91° |
| 2026-04-24 03:52 | 48.48468 | 16.04769 | 14309 ft | 405 kts | 91° |
| 2026-04-24 03:52 | 48.48212 | 16.08939 | 14111 ft | 404 kts | 91° |
| 2026-04-24 03:53 | 48.47979 | 16.13151 | 13910 ft | 403 kts | 90° |
| 2026-04-24 03:53 | 48.47825 | 16.17370 | 13708 ft | 402 kts | 89° |
| 2026-04-24 03:53 | 48.47681 | 16.21564 | 13521 ft | 400 kts | 89° |
| 2026-04-24 03:53 | 48.47529 | 16.25747 | 13319 ft | 398 kts | 89° |
| 2026-04-24 03:54 | 48.47372 | 16.29910 | 13128 ft | 397 kts | 90° |
| 2026-04-24 03:54 | 48.47212 | 16.34057 | 12926 ft | 396 kts | 90° |
| 2026-04-24 03:54 | 48.47049 | 16.38201 | 12738 ft | 396 kts | 90° |
| 2026-04-24 03:54 | 48.46883 | 16.42337 | 12545 ft | 395 kts | 90° |
| 2026-04-24 03:55 | 48.46717 | 16.46412 | 12352 ft | 394 kts | 90° |
| 2026-04-24 03:55 | 48.46349 | 16.50516 | 12152 ft | 399 kts | 101° |
| 2026-04-24 03:55 | 48.45197 | 16.54333 | 11965 ft | 405 kts | 122° |
| 2026-04-24 03:55 | 48.43220 | 16.57356 | 11779 ft | 409 kts | 143° |
| 2026-04-24 03:56 | 48.40655 | 16.59198 | 11583 ft | 410 kts | 164° |
| 2026-04-24 03:56 | 48.37884 | 16.60197 | 11375 ft | 408 kts | 167° |
| 2026-04-24 03:56 | 48.35127 | 16.61208 | 11176 ft | 407 kts | 166° |
| 2026-04-24 03:56 | 48.32385 | 16.62277 | 11012 ft | 403 kts | 165° |
| 2026-04-24 03:57 | 48.29732 | 16.63347 | 10822 ft | 386 kts | 164° |
| 2026-04-24 03:57 | 48.27223 | 16.64376 | 10657 ft | 370 kts | 164° |
| 2026-04-24 03:57 | 48.24790 | 16.65388 | 10471 ft | 356 kts | 164° |
| 2026-04-24 03:57 | 48.22455 | 16.66359 | 10307 ft | 342 kts | 164° |
| 2026-04-24 03:58 | 48.20205 | 16.67295 | 10129 ft | 329 kts | 164° |
| 2026-04-24 03:58 | 48.18035 | 16.68200 | 9907 ft | 319 kts | 164° |
| 2026-04-24 03:58 | 48.15919 | 16.69084 | 9672 ft | 314 kts | 164° |
| 2026-04-24 03:58 | 48.13814 | 16.69963 | 9511 ft | 314 kts | 164° |
| 2026-04-24 03:59 | 48.11708 | 16.70843 | 9357 ft | 314 kts | 164° |
| 2026-04-24 03:59 | 48.09607 | 16.71727 | 9214 ft | 313 kts | 164° |
| 2026-04-24 03:59 | 48.07507 | 16.72603 | 9033 ft | 313 kts | 165° |
| 2026-04-24 03:59 | 48.05404 | 16.73474 | 8910 ft | 313 kts | 165° |
| 2026-04-24 04:00 | 48.03304 | 16.74343 | 8742 ft | 313 kts | 165° |
| 2026-04-24 04:00 | 48.01209 | 16.75212 | 8593 ft | 313 kts | 165° |
| 2026-04-24 04:00 | 47.99140 | 16.76069 | 8441 ft | 313 kts | 165° |
| 2026-04-24 04:00 | 47.97046 | 16.76937 | 8292 ft | 312 kts | 165° |
| 2026-04-24 04:01 | 47.94951 | 16.77804 | 8140 ft | 311 kts | 165° |
| 2026-04-24 04:01 | 47.92865 | 16.78672 | 7984 ft | 310 kts | 165° |
| 2026-04-24 04:01 | 47.90805 | 16.79520 | 7843 ft | 310 kts | 166° |
| 2026-04-24 04:01 | 47.88726 | 16.80376 | 7683 ft | 310 kts | 166° |
| 2026-04-24 04:02 | 47.86650 | 16.81230 | 7527 ft | 309 kts | 166° |
| 2026-04-24 04:02 | 47.84576 | 16.82089 | 7379 ft | 309 kts | 166° |
| 2026-04-24 04:02 | 47.82508 | 16.82938 | 7230 ft | 309 kts | 167° |
| 2026-04-24 04:02 | 47.80471 | 16.83774 | 7093 ft | 298 kts | 167° |
| 2026-04-24 04:03 | 47.78507 | 16.84583 | 6945 ft | 289 kts | 167° |
| 2026-04-24 04:03 | 47.76576 | 16.85379 | 6807 ft | 288 kts | 167° |
| 2026-04-24 04:03 | 47.74645 | 16.86158 | 6652 ft | 285 kts | 169° |
| 2026-04-24 04:03 | 47.72699 | 16.86371 | 6526 ft | 277 kts | 197° |
| 2026-04-24 04:04 | 47.71056 | 16.85200 | 6398 ft | 254 kts | 231° |
| 2026-04-24 04:04 | 47.70111 | 16.83133 | 6274 ft | 236 kts | 257° |
| 2026-04-24 04:04 | 47.69638 | 16.80831 | 6158 ft | 231 kts | 265° |
| 2026-04-24 04:04 | 47.69568 | 16.78514 | 6046 ft | 221 kts | 285° |
| 2026-04-24 04:05 | 47.70113 | 16.76454 | 5993 ft | 213 kts | 307° |
| 2026-04-24 04:05 | 47.71164 | 16.74950 | 5789 ft | 210 kts | 328° |
| 2026-04-24 04:05 | 47.72507 | 16.74158 | 5627 ft | 212 kts | 343° |
| 2026-04-24 04:05 | 47.73949 | 16.73669 | 5518 ft | 213 kts | 344° |
| 2026-04-24 04:06 | 47.75394 | 16.73162 | 5506 ft | 213 kts | 342° |
| 2026-04-24 04:06 | 47.76832 | 16.72604 | 5507 ft | 213 kts | 341° |
| 2026-04-24 04:06 | 47.78258 | 16.72003 | 5507 ft | 213 kts | 341° |
| 2026-04-24 04:06 | 47.79682 | 16.71397 | 5512 ft | 213 kts | 341° |
| 2026-04-24 04:07 | 47.81113 | 16.70800 | 5511 ft | 213 kts | 341° |
| 2026-04-24 04:07 | 47.82539 | 16.70205 | 5509 ft | 213 kts | 341° |
| 2026-04-24 04:07 | 47.83966 | 16.69607 | 5509 ft | 213 kts | 341° |
| 2026-04-24 04:07 | 47.85396 | 16.69008 | 5465 ft | 213 kts | 341° |
| 2026-04-24 04:08 | 47.86789 | 16.68425 | 5249 ft | 208 kts | 341° |
| 2026-04-24 04:08 | 47.88167 | 16.67847 | 4961 ft | 205 kts | 341° |
| 2026-04-24 04:08 | 47.89535 | 16.67272 | 4623 ft | 203 kts | 341° |
| 2026-04-24 04:08 | 47.90898 | 16.66699 | 4312 ft | 201 kts | 342° |
| 2026-04-24 04:09 | 47.92235 | 16.66138 | 4013 ft | 197 kts | 343° |
| 2026-04-24 04:09 | 47.93542 | 16.65589 | 3751 ft | 193 kts | 343° |
| 2026-04-24 04:09 | 47.94816 | 16.65053 | 3497 ft | 188 kts | 344° |
| 2026-04-24 04:09 | 47.96068 | 16.64527 | 3254 ft | 186 kts | 344° |
| 2026-04-24 04:10 | 47.97290 | 16.64012 | 2996 ft | 177 kts | 345° |
| 2026-04-24 04:10 | 47.98428 | 16.63533 | 2800 ft | 163 kts | 344° |
| 2026-04-24 04:10 | 47.99464 | 16.63097 | 2552 ft | 150 kts | 344° |
| 2026-04-24 04:11 | 48.01321 | 16.62316 | 2172 ft | 126 kts | 343° |
| 2026-04-24 04:11 | 48.02126 | 16.61976 | 2004 ft | 115 kts | 343° |
| 2026-04-24 04:11 | 48.02884 | 16.61657 | 1860 ft | 115 kts | 343° |
| 2026-04-24 04:11 | 48.03659 | 16.61335 | 1717 ft | 116 kts | 344° |
| 2026-04-24 04:12 | 48.04447 | 16.61024 | 1543 ft | 117 kts | 344° |
| 2026-04-24 04:12 | 48.05242 | 16.60718 | 1397 ft | 119 kts | 342° |
| 2026-04-24 04:12 | 48.06031 | 16.60332 | 1228 ft | 120 kts | 339° |
| 2026-04-24 04:12 | 48.06825 | 16.59971 | 1053 ft | 123 kts | 343° |
| 2026-04-24 04:13 | 48.07653 | 16.59646 | 885 ft | 122 kts | 343° |
| 2026-04-24 04:13 | 48.08473 | 16.59291 | 732 ft | 123 kts | 342° |
| 2026-04-24 04:13 | 48.09303 | 16.58957 | 630 ft | 120 kts | 342° |
| 2026-04-24 04:13 | 48.09994 | 16.58653 | 628 ft | 88 kts | 344° |
| 2026-04-24 04:14 | 48.10475 | 16.58455 | 628 ft | 56 kts | 344° |
| 2026-04-24 04:14 | 48.10741 | 16.58345 | 623 ft | 23 kts | 345° |
| 2026-04-24 04:14 | 48.10880 | 16.58283 | 627 ft | 21 kts | 340° |
| 2026-04-24 04:14 | 48.10997 | 16.58164 | 629 ft | 20 kts | 312° |
| 2026-04-24 04:15 | 48.11069 | 16.57987 | 623 ft | 20 kts | 296° |
| 2026-04-24 04:15 | 48.11134 | 16.57788 | 626 ft | 22 kts | 296° |
| 2026-04-24 04:15 | 48.11204 | 16.57574 | 622 ft | 24 kts | 296° |
| 2026-04-24 04:15 | 48.11279 | 16.57343 | 627 ft | 25 kts | 296° |
| 2026-04-24 04:16 | 48.11358 | 16.57100 | 630 ft | 27 kts | 294° |
| 2026-04-24 04:16 | 48.11435 | 16.56842 | 630 ft | 28 kts | 297° |
| 2026-04-24 04:16 | 48.11527 | 16.56581 | 630 ft | 29 kts | 297° |
| 2026-04-24 04:16 | 48.11584 | 16.56408 | 628 ft | 15 kts | 297° |
| 2026-04-24 04:17 | 48.11624 | 16.56292 | 630 ft | 9 kts | 301° |
| 2026-04-24 04:17 | 48.11678 | 16.56238 | 630 ft | 11 kts | 339° |
| 2026-04-24 04:17 | 48.11750 | 16.56204 | 628 ft | 7 kts | 343° |
| 2026-04-24 04:17 | 48.11776 | 16.56192 | 628 ft | 2 kts | 343° |